createdAt,value
2022-10-14T00:00:25.761Z,4.05
2022-10-14T00:01:38.373Z,3.17
2022-10-14T00:02:42.104Z,3.30
2022-10-14T00:03:52.367Z,3.13
2022-10-14T00:05:01.317Z,3.67
2022-10-14T00:06:06.387Z,3.40
2022-10-14T00:07:15.296Z,3.67
2022-10-14T00:08:18.865Z,2.85
2022-10-14T00:09:28.315Z,3.40
2022-10-14T00:10:31.878Z,3.38
2022-10-14T00:11:42.260Z,4.20
2022-10-14T00:12:45.478Z,2.80
2022-10-14T00:13:48.908Z,4.03
2022-10-14T00:14:59.271Z,2.60
2022-10-14T00:16:03.096Z,3.08
2022-10-14T00:17:05.694Z,2.30
2022-10-14T00:18:09.360Z,3.38
2022-10-14T00:19:25.259Z,1.95
2022-10-14T00:20:35.412Z,3.78
2022-10-14T00:21:38.664Z,3.58
2022-10-14T00:22:49.262Z,3.13
2022-10-14T00:23:51.798Z,3.53
2022-10-14T00:25:02.321Z,2.10
2022-10-14T00:26:04.820Z,2.28
2022-10-14T00:27:08.339Z,2.22
2022-10-14T00:28:10.812Z,3.30
2022-10-14T00:29:15.312Z,2.92
2022-10-14T00:30:25.260Z,2.90
2022-10-14T00:31:29.310Z,4.13
2022-10-14T00:32:31.804Z,2.83
2022-10-14T00:33:35.248Z,2.42
2022-10-14T00:34:37.849Z,2.78
2022-10-14T00:35:48.326Z,2.63
2022-10-14T00:36:50.871Z,2.60
2022-10-14T00:37:54.526Z,3.13
2022-10-14T00:38:57.028Z,2.22
2022-10-14T00:40:00.432Z,2.63
2022-10-14T00:41:09.246Z,2.70
2022-10-14T00:42:14.665Z,2.22
2022-10-14T00:43:17.431Z,2.67
2022-10-14T00:44:39.353Z,2.15
2022-10-14T00:45:43.187Z,3.25
2022-10-14T00:46:54.273Z,2.47
2022-10-14T00:47:57.045Z,2.38
2022-10-14T00:49:00.862Z,2.80
2022-10-14T00:50:03.978Z,2.83
2022-10-14T00:51:07.836Z,2.30
2022-10-14T00:52:19.305Z,3.22
2022-10-14T00:53:22.934Z,2.67
2022-10-14T00:54:29.132Z,2.80
2022-10-14T00:55:33.113Z,1.98
2022-10-14T00:56:36.162Z,3.55
2022-10-14T00:57:47.239Z,3.53
2022-10-14T00:58:49.789Z,2.85
2022-10-14T00:59:53.400Z,2.28
2022-10-14T01:00:57.301Z,2.80
2022-10-14T01:02:00.786Z,2.03
2022-10-14T01:03:14.264Z,3.10
2022-10-14T01:04:17.708Z,3.08
2022-10-14T01:05:20.888Z,3.00
2022-10-14T01:06:32.065Z,4.10
2022-10-14T01:07:49.401Z,2.28
2022-10-14T01:09:03.312Z,2.70
2022-10-14T01:10:09.748Z,2.95
2022-10-14T01:11:17.710Z,2.45
2022-10-14T01:12:28.978Z,2.65
2022-10-14T01:13:34.916Z,2.50
2022-10-14T01:14:49.415Z,3.70
2022-10-14T01:15:57.277Z,2.38
2022-10-14T01:17:05.306Z,3.20
2022-10-14T01:18:18.128Z,2.95
2022-10-14T01:19:46.260Z,2.78
2022-10-14T01:21:13.480Z,2.95
2022-10-14T01:22:22.408Z,2.25
2022-10-14T01:23:39.116Z,3.45
2022-10-14T01:24:50.268Z,2.22
2022-10-14T01:26:02.275Z,2.70
2022-10-14T01:27:23.425Z,3.17
2022-10-14T01:28:28.697Z,2.80
2022-10-14T01:29:50.587Z,3.40
2022-10-14T01:31:06.309Z,2.83
2022-10-14T01:32:11.613Z,2.13
2022-10-14T01:33:16.584Z,2.20
2022-10-14T01:34:21.264Z,3.38
2022-10-14T01:35:28.510Z,3.53
2022-10-14T01:36:40.288Z,3.35
2022-10-14T01:37:54.268Z,2.72
2022-10-14T01:38:59.477Z,2.95
2022-10-14T01:40:05.063Z,2.85
2022-10-14T01:41:09.331Z,3.05
2022-10-14T01:42:21.657Z,3.17
2022-10-14T01:43:26.664Z,2.88
2022-10-14T01:44:32.331Z,3.33
2022-10-14T01:45:36.121Z,3.53
2022-10-14T01:46:42.550Z,2.55
2022-10-14T01:47:52.282Z,2.40
2022-10-14T01:48:57.327Z,2.65
2022-10-14T01:50:02.331Z,2.90
2022-10-14T01:51:08.723Z,2.80
2022-10-14T01:52:19.690Z,3.55
2022-10-14T01:53:25.722Z,2.70
2022-10-14T01:54:32.441Z,2.78
2022-10-14T01:55:38.405Z,2.33
2022-10-14T01:56:42.505Z,3.38
2022-10-14T01:57:53.270Z,3.17
2022-10-14T01:59:03.303Z,3.15
2022-10-14T02:00:06.622Z,2.88
2022-10-14T02:01:10.773Z,2.75
2022-10-14T02:02:14.699Z,2.92
2022-10-14T02:03:18.118Z,2.38
2022-10-14T02:04:28.257Z,4.03
2022-10-14T02:05:33.848Z,2.30
2022-10-14T02:06:38.736Z,3.33
2022-10-14T02:07:43.660Z,2.35
2022-10-14T02:09:00.331Z,2.90
2022-10-14T02:10:07.676Z,2.78
2022-10-14T02:11:11.165Z,2.97
2022-10-14T02:12:20.850Z,3.90
2022-10-14T02:13:30.810Z,3.33
2022-10-14T02:14:46.328Z,2.92
2022-10-14T02:15:57.511Z,2.95
2022-10-14T02:17:03.362Z,2.90
2022-10-14T02:18:10.924Z,2.25
2022-10-14T02:19:38.274Z,3.67
2022-10-14T02:20:49.291Z,2.92
2022-10-14T02:21:55.801Z,3.08
2022-10-14T02:22:59.824Z,4.38
2022-10-14T02:24:05.611Z,2.67
2022-10-14T02:25:16.289Z,2.97
2022-10-14T02:26:20.489Z,3.80
2022-10-14T02:27:25.394Z,3.33
2022-10-14T02:28:30.314Z,3.45
2022-10-14T02:29:33.808Z,2.05
2022-10-14T02:30:49.276Z,2.33
2022-10-14T02:31:52.041Z,2.28
2022-10-14T02:32:55.868Z,3.70
2022-10-14T02:34:01.659Z,3.25
2022-10-14T02:35:06.026Z,3.47
2022-10-14T02:36:16.667Z,3.53
2022-10-14T02:37:21.115Z,2.92
2022-10-14T02:38:24.253Z,3.28
2022-10-14T02:39:29.758Z,3.20
2022-10-14T02:40:36.364Z,2.88
2022-10-14T02:41:46.291Z,3.53
2022-10-14T02:42:48.797Z,2.65
2022-10-14T02:43:52.289Z,3.60
2022-10-14T02:44:55.268Z,2.13
2022-10-14T02:45:59.243Z,2.85
2022-10-14T02:47:08.310Z,2.70
2022-10-14T02:48:12.149Z,2.28
2022-10-14T02:49:16.050Z,2.50
2022-10-14T02:50:19.552Z,2.97
2022-10-14T02:51:22.057Z,2.45
2022-10-14T02:52:32.350Z,3.40
2022-10-14T02:53:34.865Z,2.50
2022-10-14T02:54:38.460Z,2.22
2022-10-14T02:55:40.973Z,2.63
2022-10-14T02:56:44.728Z,1.73
2022-10-14T02:57:53.434Z,2.65
2022-10-14T02:58:56.923Z,1.48
2022-10-14T02:59:59.673Z,2.42
2022-10-14T03:01:03.127Z,2.08
2022-10-14T03:02:05.638Z,2.65
2022-10-14T03:03:15.294Z,2.88
2022-10-14T03:04:19.152Z,2.10
2022-10-14T03:05:23.043Z,2.85
2022-10-14T03:06:25.632Z,2.28
2022-10-14T03:07:29.122Z,3.17
2022-10-14T03:08:38.284Z,2.97
2022-10-14T03:09:41.745Z,2.83
2022-10-14T03:10:47.056Z,1.95
2022-10-14T03:11:50.565Z,2.53
2022-10-14T03:12:53.161Z,3.17
2022-10-14T03:14:03.298Z,3.42
2022-10-14T03:15:13.300Z,2.05
2022-10-14T03:16:16.697Z,2.55
2022-10-14T03:17:19.394Z,1.45
2022-10-14T03:18:22.940Z,2.90
2022-10-14T03:19:39.338Z,2.50
2022-10-14T03:20:51.475Z,2.58
2022-10-14T03:21:53.960Z,2.63
2022-10-14T03:22:57.351Z,2.53
2022-10-14T03:24:01.788Z,2.55
2022-10-14T03:25:12.300Z,3.83
2022-10-14T03:26:14.809Z,2.20
2022-10-14T03:27:18.297Z,3.83
2022-10-14T03:28:20.872Z,3.13
2022-10-14T03:29:24.397Z,2.58
2022-10-14T03:30:33.316Z,2.72
2022-10-14T03:31:36.718Z,3.58
2022-10-14T03:32:39.178Z,2.45
2022-10-14T03:33:42.612Z,4.55
2022-10-14T03:34:46.510Z,3.42
2022-10-14T03:35:56.331Z,2.80
2022-10-14T03:36:59.799Z,3.70
2022-10-14T03:38:03.541Z,3.25
2022-10-14T03:39:06.935Z,3.88
2022-10-14T03:40:09.698Z,3.22
2022-10-14T03:41:19.318Z,3.35
2022-10-14T03:42:22.118Z,3.17
2022-10-14T03:43:25.742Z,3.95
2022-10-14T03:44:28.256Z,4.15
2022-10-14T03:45:31.683Z,2.75
2022-10-14T03:46:40.294Z,3.60
2022-10-14T03:47:43.734Z,3.05
2022-10-14T03:48:46.217Z,3.13
2022-10-14T03:49:50.962Z,4.35
2022-10-14T03:50:53.485Z,4.18
2022-10-14T03:52:03.361Z,3.60
2022-10-14T03:53:05.851Z,2.67
2022-10-14T03:54:15.476Z,3.53
2022-10-14T03:55:18.100Z,3.63
2022-10-14T03:56:22.250Z,3.97
2022-10-14T03:57:31.318Z,4.50
2022-10-14T03:58:34.743Z,3.67
2022-10-14T03:59:38.343Z,3.25
2022-10-14T04:00:41.800Z,3.65
2022-10-14T04:01:51.387Z,4.45
2022-10-14T04:02:54.930Z,3.55
2022-10-14T04:03:57.393Z,2.95
2022-10-14T04:05:02.179Z,3.15
2022-10-14T04:06:05.274Z,4.05
2022-10-14T04:07:15.349Z,3.35
2022-10-14T04:08:17.811Z,4.20
2022-10-14T04:09:21.299Z,3.72
2022-10-14T04:10:24.283Z,3.65
2022-10-14T04:11:27.724Z,3.08
2022-10-14T04:12:37.366Z,3.63
2022-10-14T04:13:40.785Z,4.03
2022-10-14T04:14:44.220Z,2.80
2022-10-14T04:15:46.835Z,3.67
2022-10-14T04:16:50.282Z,2.08
2022-10-14T04:17:59.327Z,3.25
2022-10-14T04:19:09.326Z,4.90
2022-10-14T04:20:34.280Z,3.05
2022-10-14T04:21:36.863Z,2.90
2022-10-14T04:22:40.267Z,3.28
2022-10-14T04:23:49.325Z,2.90
2022-10-14T04:24:52.776Z,2.65
2022-10-14T04:25:55.260Z,3.65
2022-10-14T04:26:58.849Z,2.67
2022-10-14T04:28:01.314Z,4.13
2022-10-14T04:29:11.363Z,2.90
2022-10-14T04:30:14.099Z,4.30
2022-10-14T04:31:17.845Z,2.75
2022-10-14T04:32:21.587Z,3.88
2022-10-14T04:33:24.471Z,3.15
2022-10-14T04:34:34.331Z,3.70
2022-10-14T04:35:38.125Z,2.92
2022-10-14T04:36:41.709Z,2.20
2022-10-14T04:37:44.208Z,3.00
2022-10-14T04:38:47.606Z,3.58
2022-10-14T04:39:56.300Z,3.05
2022-10-14T04:40:59.909Z,3.47
2022-10-14T04:42:02.410Z,4.22
2022-10-14T04:43:05.841Z,3.05
2022-10-14T04:44:15.365Z,3.95
2022-10-14T04:45:18.787Z,2.67
2022-10-14T04:46:21.349Z,3.17
2022-10-14T04:47:24.789Z,3.60
2022-10-14T04:48:27.283Z,3.10
2022-10-14T04:49:37.323Z,4.43
2022-10-14T04:50:41.192Z,2.45
2022-10-14T04:51:51.338Z,3.35
2022-10-14T04:52:53.855Z,3.10
2022-10-14T04:53:57.403Z,3.92
2022-10-14T04:54:59.868Z,3.85
2022-10-14T04:56:03.362Z,3.05
2022-10-14T04:57:12.440Z,3.90
2022-10-14T04:58:15.872Z,3.08
2022-10-14T04:59:18.441Z,3.42
2022-10-14T05:00:21.953Z,3.75
2022-10-14T05:01:33.902Z,3.72
2022-10-14T05:02:37.696Z,3.90
2022-10-14T05:03:40.210Z,3.75
2022-10-14T05:04:43.683Z,4.30
2022-10-14T05:05:47.492Z,2.70
2022-10-14T05:06:57.373Z,2.95
2022-10-14T05:08:03.097Z,3.92
2022-10-14T05:09:06.649Z,3.08
2022-10-14T05:10:10.356Z,4.43
2022-10-14T05:11:14.328Z,4.25
2022-10-14T05:12:23.857Z,3.70
2022-10-14T05:13:27.549Z,3.58
2022-10-14T05:14:30.109Z,3.45
2022-10-14T05:15:33.633Z,3.20
2022-10-14T05:16:43.328Z,3.45
2022-10-14T05:17:46.746Z,4.18
2022-10-14T05:18:50.425Z,2.97
2022-10-14T05:20:14.299Z,3.15
2022-10-14T05:21:25.353Z,4.13
2022-10-14T05:22:27.819Z,3.30
2022-10-14T05:23:37.331Z,4.22
2022-10-14T05:24:39.898Z,3.05
2022-10-14T05:25:43.930Z,3.13
2022-10-14T05:26:53.316Z,4.60
2022-10-14T05:27:56.742Z,2.78
2022-10-14T05:28:59.334Z,3.35
2022-10-14T05:30:09.579Z,2.70
2022-10-14T05:31:12.975Z,3.45
2022-10-14T05:32:15.476Z,4.05
2022-10-14T05:33:18.951Z,3.60
2022-10-14T05:34:21.456Z,2.70
2022-10-14T05:35:57.037Z,2.80
2022-10-14T05:36:56.365Z,3.85
2022-10-14T05:38:03.940Z,4.30
2022-10-14T05:39:09.348Z,2.58
2022-10-14T05:40:12.184Z,2.92
2022-10-14T05:41:22.337Z,3.63
2022-10-14T05:42:39.352Z,2.88
2022-10-14T05:43:42.896Z,3.15
2022-10-14T05:44:45.412Z,3.92
2022-10-14T05:45:48.883Z,3.03
2022-10-14T05:46:58.382Z,3.45
2022-10-14T05:48:01.796Z,2.83
2022-10-14T05:49:06.139Z,2.97
2022-10-14T05:50:09.868Z,3.10
2022-10-14T05:51:15.463Z,3.22
2022-10-14T05:52:26.354Z,4.22
2022-10-14T05:53:30.621Z,2.67
2022-10-14T05:54:33.116Z,4.80
2022-10-14T05:55:36.536Z,3.20
2022-10-14T05:56:39.229Z,4.07
2022-10-14T05:57:51.357Z,3.60
2022-10-14T05:58:53.839Z,4.10
2022-10-14T05:59:57.350Z,4.57
2022-10-14T06:01:00.890Z,4.50
2022-10-14T06:02:04.400Z,2.78
2022-10-14T06:03:13.509Z,3.17
2022-10-14T06:04:18.862Z,4.88
2022-10-14T06:05:21.552Z,3.58
2022-10-14T06:06:28.840Z,4.05
2022-10-14T06:07:33.022Z,4.13
2022-10-14T06:08:43.358Z,2.72
2022-10-14T06:09:52.345Z,4.15
2022-10-14T06:10:56.120Z,4.22
2022-10-14T06:12:06.071Z,3.60
2022-10-14T06:13:09.487Z,3.15
2022-10-14T06:14:18.349Z,3.92
2022-10-14T06:15:21.790Z,3.35
2022-10-14T06:16:25.234Z,4.15
2022-10-14T06:17:27.804Z,4.70
2022-10-14T06:18:31.281Z,4.32
2022-10-14T06:19:40.349Z,4.15
2022-10-14T06:20:50.600Z,3.67
2022-10-14T06:21:59.670Z,3.35
2022-10-14T06:23:04.454Z,3.70
2022-10-14T06:24:13.338Z,4.00
2022-10-14T06:25:16.830Z,4.18
2022-10-14T06:26:19.404Z,2.83
2022-10-14T06:27:29.358Z,3.67
2022-10-14T06:28:31.916Z,4.55
2022-10-14T06:29:38.094Z,5.20
2022-10-14T06:30:40.612Z,4.95
2022-10-14T06:31:50.337Z,4.32
2022-10-14T06:33:01.355Z,3.17
2022-10-14T06:34:12.330Z,3.97
2022-10-14T06:35:15.797Z,3.78
2022-10-14T06:36:18.302Z,7.63
2022-10-14T06:37:21.670Z,7.13
2022-10-14T06:38:25.501Z,5.78
2022-10-14T06:39:35.391Z,4.78
2022-10-14T06:40:38.145Z,4.90
2022-10-14T06:41:41.529Z,6.30
2022-10-14T06:42:44.061Z,5.47
2022-10-14T06:43:47.548Z,4.47
2022-10-14T06:44:56.427Z,4.60
2022-10-14T06:46:00.394Z,5.70
2022-10-14T06:47:02.850Z,4.85
2022-10-14T06:48:06.502Z,5.50
2022-10-14T06:49:10.195Z,5.22
2022-10-14T06:50:19.312Z,5.38
2022-10-14T06:51:22.748Z,5.82
2022-10-14T06:52:25.334Z,6.18
2022-10-14T06:53:30.487Z,7.55
2022-10-14T06:54:40.414Z,5.85
2022-10-14T06:55:45.230Z,6.28
2022-10-14T06:56:47.717Z,6.10
2022-10-14T06:57:51.084Z,6.53
2022-10-14T06:58:54.785Z,6.88
2022-10-14T07:00:04.390Z,5.88
2022-10-14T07:01:08.714Z,5.97
2022-10-14T07:02:11.512Z,4.75
2022-10-14T07:03:14.935Z,6.03
2022-10-14T07:04:17.452Z,6.55
2022-10-14T07:05:27.350Z,5.78
2022-10-14T07:06:30.793Z,6.57
2022-10-14T07:07:40.350Z,5.88
2022-10-14T07:08:45.230Z,6.18
2022-10-14T07:09:47.984Z,7.35
2022-10-14T07:10:51.594Z,6.68
2022-10-14T07:11:54.109Z,6.85
2022-10-14T07:13:04.350Z,5.07
2022-10-14T07:14:14.346Z,6.85
2022-10-14T07:15:16.874Z,6.15
2022-10-14T07:16:20.602Z,7.68
2022-10-14T07:17:23.629Z,6.28
2022-10-14T07:18:27.637Z,7.20
2022-10-14T07:19:37.525Z,6.07
2022-10-14T07:20:47.809Z,5.95
2022-10-14T07:21:57.514Z,6.90
2022-10-14T07:23:00.012Z,6.40
2022-10-14T07:24:11.349Z,6.72
2022-10-14T07:25:13.880Z,9.02
2022-10-14T07:26:17.359Z,6.43
2022-10-14T07:27:20.890Z,6.63
2022-10-14T07:28:25.219Z,7.07
2022-10-14T07:29:35.369Z,6.65
2022-10-14T07:30:38.931Z,5.63
2022-10-14T07:31:42.341Z,6.15
2022-10-14T07:32:44.840Z,7.18
2022-10-14T07:33:48.302Z,6.90
2022-10-14T07:34:58.484Z,7.25
2022-10-14T07:36:03.460Z,5.93
2022-10-14T07:37:06.398Z,6.53
2022-10-14T07:38:09.801Z,6.45
2022-10-14T07:39:14.080Z,6.32
2022-10-14T07:40:24.371Z,6.32
2022-10-14T07:41:27.837Z,7.15
2022-10-14T07:42:30.474Z,6.65
2022-10-14T07:43:34.319Z,6.95
2022-10-14T07:44:46.361Z,6.30
2022-10-14T07:45:51.085Z,6.18
2022-10-14T07:46:53.616Z,5.82
2022-10-14T07:47:57.030Z,6.53
2022-10-14T07:49:00.302Z,5.53
2022-10-14T07:50:10.360Z,6.38
2022-10-14T07:51:19.372Z,5.95
2022-10-14T07:52:22.775Z,6.45
2022-10-14T07:53:25.793Z,7.03
2022-10-14T07:54:32.474Z,7.10
2022-10-14T07:55:41.377Z,6.25
2022-10-14T07:56:46.320Z,6.55
2022-10-14T07:57:48.831Z,8.25
2022-10-14T07:58:52.761Z,7.97
2022-10-14T07:59:55.263Z,7.82
2022-10-14T08:01:06.476Z,8.07
2022-10-14T08:02:09.870Z,7.25
2022-10-14T08:03:12.455Z,6.35
2022-10-14T08:04:16.080Z,6.97
2022-10-14T08:05:36.979Z,8.55
2022-10-14T08:06:48.397Z,7.55
2022-10-14T08:07:51.069Z,6.85
2022-10-14T08:08:54.457Z,6.20
2022-10-14T08:09:59.245Z,6.57
2022-10-14T08:11:02.847Z,6.20
2022-10-14T08:12:13.347Z,6.03
2022-10-14T08:13:18.071Z,6.82
2022-10-14T08:14:21.532Z,6.40
2022-10-14T08:15:28.523Z,7.55
2022-10-14T08:16:39.351Z,7.60
2022-10-14T08:17:42.187Z,6.72
2022-10-14T08:18:45.983Z,6.78
2022-10-14T08:20:03.351Z,8.23
2022-10-14T08:21:14.023Z,7.40
2022-10-14T08:22:17.378Z,6.90
2022-10-14T08:23:20.789Z,6.85
2022-10-14T08:24:24.456Z,5.88
2022-10-14T08:25:35.339Z,7.18
2022-10-14T08:26:39.649Z,7.20
2022-10-14T08:27:42.102Z,7.72
2022-10-14T08:28:45.468Z,7.28
2022-10-14T08:29:47.984Z,7.68
2022-10-14T08:30:59.358Z,7.22
2022-10-14T08:32:09.362Z,5.05
2022-10-14T08:33:13.211Z,7.22
2022-10-14T08:34:21.072Z,6.90
2022-10-14T08:35:23.766Z,6.88
2022-10-14T08:36:34.621Z,7.18
2022-10-14T08:37:37.230Z,8.15
2022-10-14T08:38:41.401Z,7.15
2022-10-14T08:39:43.940Z,7.22
2022-10-14T08:40:55.823Z,8.02
2022-10-14T08:42:22.764Z,7.05
2022-10-14T08:43:28.933Z,6.03
2022-10-14T08:44:36.431Z,7.00
2022-10-14T08:45:41.303Z,7.35
2022-10-14T08:46:49.493Z,7.10
2022-10-14T08:48:04.367Z,7.00
2022-10-14T08:49:11.291Z,6.95
2022-10-14T08:50:21.547Z,6.97
2022-10-14T08:51:24.090Z,6.47
2022-10-14T08:52:37.792Z,7.43
2022-10-14T08:53:43.810Z,7.72
2022-10-14T08:54:49.222Z,7.80
2022-10-14T08:55:56.261Z,7.55
2022-10-14T08:56:59.805Z,7.53
2022-10-14T08:58:12.516Z,7.30
2022-10-14T08:59:19.403Z,6.18
2022-10-14T09:00:22.773Z,6.28
2022-10-14T09:01:28.561Z,7.03
2022-10-14T09:02:36.302Z,7.15
2022-10-14T09:03:46.537Z,7.82
2022-10-14T09:04:49.331Z,7.10
2022-10-14T09:05:58.359Z,7.57
2022-10-14T09:07:01.061Z,6.87
2022-10-14T09:08:04.469Z,7.88
2022-10-14T09:09:16.433Z,7.95
2022-10-14T09:10:24.749Z,7.83
2022-10-14T09:11:33.571Z,7.57
2022-10-14T09:12:38.106Z,8.27
2022-10-14T09:13:41.635Z,7.20
2022-10-14T09:14:54.389Z,7.80
2022-10-14T09:16:00.136Z,7.30
2022-10-14T09:17:08.368Z,7.20
2022-10-14T09:18:17.360Z,6.93
2022-10-14T09:19:23.691Z,7.93
2022-10-14T09:20:33.502Z,7.10
2022-10-14T09:21:53.003Z,6.97
2022-10-14T09:23:01.699Z,7.50
2022-10-14T09:24:12.015Z,6.67
2022-10-14T09:25:22.377Z,6.10
2022-10-14T09:26:27.292Z,6.63
2022-10-14T09:27:31.238Z,6.67
2022-10-14T09:28:38.437Z,7.20
2022-10-14T09:29:44.092Z,7.70
2022-10-14T09:30:54.345Z,8.17
2022-10-14T09:31:59.115Z,7.57
2022-10-14T09:33:03.531Z,8.33
2022-10-14T09:34:08.371Z,7.30
2022-10-14T09:35:14.532Z,6.87
2022-10-14T09:36:26.431Z,6.70
2022-10-14T09:37:30.573Z,7.27
2022-10-14T09:38:33.355Z,7.60
2022-10-14T09:39:39.674Z,7.97
2022-10-14T09:40:43.626Z,6.80
2022-10-14T09:41:55.354Z,7.17
2022-10-14T09:43:02.489Z,6.47
2022-10-14T09:44:32.363Z,5.60
2022-10-14T09:45:56.364Z,7.50
2022-10-14T09:47:00.860Z,6.73
2022-10-14T09:48:07.849Z,6.87
2022-10-14T09:49:21.422Z,7.73
2022-10-14T09:50:26.525Z,6.63
2022-10-14T09:51:36.390Z,6.47
2022-10-14T09:52:40.092Z,7.23
2022-10-14T09:53:47.883Z,6.37
2022-10-14T09:54:53.695Z,8.40
2022-10-14T09:55:58.245Z,7.27
2022-10-14T09:57:10.412Z,6.07
2022-10-14T09:58:18.231Z,6.10
2022-10-14T09:59:22.100Z,6.97
2022-10-14T10:00:30.283Z,6.63
2022-10-14T10:01:44.435Z,6.30
2022-10-14T10:02:48.673Z,8.97
2022-10-14T10:03:53.621Z,7.20
2022-10-14T10:04:57.424Z,7.10
2022-10-14T10:06:02.131Z,6.83
2022-10-14T10:07:13.403Z,6.43
2022-10-14T10:08:18.052Z,6.23
2022-10-14T10:09:21.725Z,7.33
2022-10-14T10:10:24.755Z,6.90
2022-10-14T10:11:33.477Z,6.70
2022-10-14T10:12:43.395Z,6.30
2022-10-14T10:13:48.920Z,6.40
2022-10-14T10:14:56.599Z,6.07
2022-10-14T10:16:00.541Z,6.57
2022-10-14T10:17:20.279Z,5.83
2022-10-14T10:18:31.394Z,5.87
2022-10-14T10:19:35.951Z,6.10
2022-10-14T10:21:08.085Z,7.60
2022-10-14T10:23:32.411Z,6.70
2022-10-14T10:24:35.822Z,5.67
2022-10-14T10:25:44.425Z,5.17
2022-10-14T10:26:47.995Z,5.07
2022-10-14T10:27:51.654Z,5.87
2022-10-14T10:28:58.136Z,5.80
2022-10-14T10:30:15.289Z,7.03
2022-10-14T10:31:30.517Z,6.03
2022-10-14T10:32:36.521Z,6.77
2022-10-14T10:33:41.820Z,6.23
2022-10-14T10:35:07.585Z,6.87
2022-10-14T10:36:24.432Z,6.23
2022-10-14T10:37:29.360Z,5.63
2022-10-14T10:38:34.825Z,6.33
2022-10-14T10:39:44.047Z,5.13
2022-10-14T10:40:49.883Z,6.00
2022-10-14T10:42:05.427Z,7.03
2022-10-14T10:43:30.456Z,7.73
2022-10-14T10:44:43.266Z,5.90
2022-10-14T10:45:53.140Z,7.27
2022-10-14T10:47:02.999Z,6.07
2022-10-14T10:48:10.913Z,7.17
2022-10-14T10:49:26.410Z,6.57
2022-10-14T10:50:32.031Z,6.40
2022-10-14T10:51:40.700Z,5.50
2022-10-14T10:52:55.402Z,5.73
2022-10-14T10:54:14.475Z,6.43
2022-10-14T10:55:25.258Z,5.97
2022-10-14T10:56:34.297Z,6.80
2022-10-14T10:57:46.043Z,6.47
2022-10-14T10:58:56.727Z,5.53
2022-10-14T11:00:10.480Z,7.03
2022-10-14T11:01:19.297Z,5.80
2022-10-14T11:02:40.443Z,6.67
2022-10-14T11:03:52.423Z,5.97
2022-10-14T11:05:07.414Z,5.50
2022-10-14T11:06:43.476Z,6.40
2022-10-14T11:08:09.802Z,5.47
2022-10-14T11:09:36.184Z,4.67
2022-10-14T11:11:03.221Z,6.27
2022-10-14T11:12:20.777Z,5.27
2022-10-14T11:13:30.737Z,4.87
2022-10-14T11:14:46.420Z,6.27
2022-10-14T11:15:54.931Z,5.90
2022-10-14T11:17:08.528Z,4.90
2022-10-14T11:18:15.828Z,5.13
2022-10-14T11:19:49.398Z,6.03
2022-10-14T11:21:18.368Z,5.13
2022-10-14T11:22:35.460Z,4.80
2022-10-14T11:23:59.887Z,5.30
2022-10-14T11:25:04.824Z,6.37
2022-10-14T11:26:13.313Z,5.23
2022-10-14T11:27:22.352Z,5.07
2022-10-14T11:28:36.504Z,5.43
2022-10-14T11:29:58.104Z,6.10
2022-10-14T11:31:06.333Z,5.70
2022-10-14T11:32:11.072Z,6.03
2022-10-14T11:33:22.311Z,5.82
2022-10-14T11:34:38.423Z,5.25
2022-10-14T11:35:55.446Z,5.82
2022-10-14T11:37:05.123Z,5.47
2022-10-14T11:38:25.490Z,5.65
2022-10-14T11:39:36.392Z,5.88
2022-10-14T11:40:40.512Z,5.45
2022-10-14T11:41:52.210Z,5.30
2022-10-14T11:43:07.023Z,5.78
2022-10-14T11:44:21.468Z,6.72
2022-10-14T11:45:45.476Z,4.97
2022-10-14T11:46:56.421Z,6.22
2022-10-14T11:48:03.811Z,5.25
2022-10-14T11:49:12.456Z,5.45
2022-10-14T11:50:17.589Z,5.80
2022-10-14T11:51:34.875Z,5.47
2022-10-14T11:52:41.211Z,5.32
2022-10-14T11:53:49.467Z,5.00
2022-10-14T11:54:55.607Z,5.30
2022-10-14T11:56:10.471Z,5.80
2022-10-14T11:57:15.731Z,6.47
2022-10-14T11:58:19.780Z,5.80
2022-10-14T11:59:38.740Z,5.40
2022-10-14T12:00:43.022Z,6.17
2022-10-14T12:01:54.475Z,5.90
2022-10-14T12:03:04.040Z,5.40
2022-10-14T12:04:11.501Z,5.90
2022-10-14T12:05:19.131Z,6.43
2022-10-14T12:06:23.350Z,5.60
2022-10-14T12:07:37.440Z,6.10
2022-10-14T12:08:46.186Z,5.97
2022-10-14T12:09:55.829Z,6.20
2022-10-14T12:11:04.582Z,6.50
2022-10-14T12:12:08.239Z,6.73
2022-10-14T12:13:21.437Z,5.63
2022-10-14T12:14:33.423Z,5.73
2022-10-14T12:15:38.224Z,6.17
2022-10-14T12:16:42.496Z,5.00
2022-10-14T12:17:48.809Z,7.20
2022-10-14T12:18:54.902Z,5.70
2022-10-14T12:20:04.429Z,5.00
2022-10-14T12:21:29.432Z,5.30
2022-10-14T12:22:33.306Z,5.27
2022-10-14T12:23:38.811Z,5.57
2022-10-14T12:24:50.535Z,5.43
2022-10-14T12:25:56.805Z,6.03
2022-10-14T12:27:01.406Z,5.70
2022-10-14T12:28:05.349Z,4.80
2022-10-14T12:29:07.925Z,5.73
2022-10-14T12:30:32.418Z,6.27
2022-10-14T12:31:37.247Z,5.40
2022-10-14T12:33:01.012Z,5.10
2022-10-14T12:34:18.982Z,5.83
2022-10-14T12:35:46.471Z,4.87
2022-10-14T12:36:50.911Z,5.10
2022-10-14T12:39:16.062Z,6.47
2022-10-14T12:40:29.166Z,5.53
2022-10-14T12:41:46.435Z,4.27
2022-10-14T12:43:04.500Z,4.77
2022-10-14T12:44:15.005Z,5.53
2022-10-14T12:45:18.648Z,5.00
2022-10-14T12:46:22.378Z,5.47
2022-10-14T12:47:35.411Z,4.67
2022-10-14T12:48:58.422Z,4.83
2022-10-14T12:50:04.533Z,5.03
2022-10-14T12:51:10.160Z,4.90
2022-10-14T12:52:19.869Z,5.33
2022-10-14T12:53:30.465Z,5.10
2022-10-14T12:54:35.094Z,4.70
2022-10-14T12:55:48.339Z,5.03
2022-10-14T12:56:59.447Z,5.83
2022-10-14T12:58:02.697Z,5.47
2022-10-14T13:00:31.344Z,5.83
2022-10-14T13:01:36.414Z,4.63
2022-10-14T13:02:47.259Z,4.93
2022-10-14T13:05:15.471Z,4.97
2022-10-14T13:06:28.777Z,5.67
2022-10-14T13:07:42.128Z,4.77
2022-10-14T13:09:06.042Z,5.17
2022-10-14T13:10:50.432Z,4.43
2022-10-14T13:12:07.675Z,4.50
2022-10-14T13:13:29.419Z,5.23
2022-10-14T13:14:32.577Z,6.20
2022-10-14T13:15:56.472Z,6.57
2022-10-14T13:16:59.813Z,5.27
2022-10-14T13:18:34.638Z,4.13
2022-10-14T13:19:44.709Z,4.27
2022-10-14T13:21:07.427Z,4.33
2022-10-14T13:22:36.806Z,4.33
2022-10-14T13:23:42.680Z,4.10
2022-10-14T13:24:52.460Z,4.50
2022-10-14T13:25:56.940Z,3.97
2022-10-14T13:27:08.419Z,4.10
2022-10-14T13:28:22.815Z,3.47
2022-10-14T13:29:29.610Z,4.00
2022-10-14T13:30:41.377Z,4.10
2022-10-14T13:31:54.438Z,4.20
2022-10-14T13:33:00.570Z,4.73
2022-10-14T13:34:11.302Z,4.43
2022-10-14T13:35:18.350Z,3.93
2022-10-14T13:36:32.433Z,4.67
2022-10-14T13:37:38.784Z,3.77
2022-10-14T13:38:45.901Z,4.33
2022-10-14T13:39:49.266Z,3.67
2022-10-14T13:40:59.451Z,3.53
2022-10-14T13:42:03.041Z,4.17
2022-10-14T13:43:15.438Z,4.77
2022-10-14T13:44:28.419Z,3.60
2022-10-14T13:45:38.204Z,4.43
2022-10-14T13:46:44.567Z,5.83
2022-10-14T13:47:55.414Z,4.90
2022-10-14T13:49:00.931Z,5.53
2022-10-14T13:50:04.374Z,5.33
2022-10-14T13:51:41.587Z,4.57
2022-10-14T13:52:46.758Z,5.00
2022-10-14T13:54:00.450Z,5.80
2022-10-14T13:55:07.585Z,5.00
2022-10-14T13:56:21.280Z,4.90
2022-10-14T13:58:07.351Z,4.50
2022-10-14T13:58:54.519Z,4.43
2022-10-14T14:01:22.956Z,4.83
2022-10-14T14:02:33.633Z,4.47
2022-10-14T14:03:37.111Z,3.93
2022-10-14T14:04:47.548Z,5.20
2022-10-14T14:05:54.015Z,3.70
2022-10-14T14:07:59.210Z,5.57
2022-10-14T14:08:41.370Z,4.17
2022-10-14T14:09:56.479Z,6.20
2022-10-14T14:11:22.275Z,4.77
2022-10-14T14:12:25.747Z,5.43
2022-10-14T14:13:29.086Z,5.13
2022-10-14T14:14:35.994Z,5.57
2022-10-14T14:15:46.520Z,5.23
2022-10-14T14:16:51.876Z,5.00
2022-10-14T14:17:54.819Z,4.27
2022-10-14T14:19:09.287Z,5.23
2022-10-14T14:20:13.660Z,4.90
2022-10-14T14:21:31.509Z,5.63
2022-10-14T14:22:34.967Z,4.40
2022-10-14T14:23:50.168Z,4.33
2022-10-14T14:24:53.784Z,5.33
2022-10-14T14:26:17.822Z,4.87
2022-10-14T14:27:28.493Z,4.70
2022-10-14T14:28:32.750Z,4.30
2022-10-14T14:29:39.022Z,4.97
2022-10-14T14:30:41.543Z,4.80
2022-10-14T14:32:06.017Z,4.70
2022-10-14T14:33:12.881Z,4.27
2022-10-14T14:34:16.680Z,3.40
2022-10-14T14:35:22.863Z,4.17
2022-10-14T14:36:50.105Z,4.60
2022-10-14T14:37:56.456Z,4.60
2022-10-14T14:39:01.574Z,4.53
2022-10-14T14:40:06.600Z,4.20
2022-10-14T14:41:17.840Z,4.93
2022-10-14T14:42:27.500Z,4.17
2022-10-14T14:43:36.516Z,4.17
2022-10-14T14:44:43.465Z,4.20
2022-10-14T14:45:47.461Z,5.77
2022-10-14T14:46:50.572Z,4.70
2022-10-14T14:48:01.518Z,4.30
2022-10-14T14:49:04.683Z,4.70
2022-10-14T14:50:29.446Z,5.00
2022-10-14T14:51:34.985Z,3.90
2022-10-14T14:52:37.662Z,4.77
2022-10-14T14:53:47.498Z,4.03
2022-10-14T14:54:51.845Z,4.50
2022-10-14T14:56:05.180Z,4.63
2022-10-14T14:57:10.693Z,4.53
2022-10-14T14:58:38.483Z,4.07
2022-10-14T14:59:42.307Z,4.23
2022-10-14T15:00:46.831Z,5.40
2022-10-14T15:01:50.537Z,5.10
2022-10-14T15:02:57.356Z,4.60
2022-10-14T15:04:12.526Z,5.37
2022-10-14T15:05:21.771Z,6.13
2022-10-14T15:06:24.965Z,5.23
2022-10-14T15:07:28.913Z,4.37
2022-10-14T15:08:33.015Z,5.27
2022-10-14T15:09:45.504Z,4.77
2022-10-14T15:10:50.468Z,4.77